Marquette, Nebraska
Current Conditions -  °F | °C
As of 6:15 PM on Wednesday 22 Oct 2014 (Local Time) from KAUH Reporting Station
Light Rain Light Rain  
Wind Chill: 62°   Ceiling: 4000
Heat Index: 62°   Visibility: 7mi
Dew Point: 60°   Wind: 6mph
Humidity: 95%   Direction: 180°S
Pressure: 30.01"   Gusts: NA
Location:  41°N, 98.01°W
Report Text: KAUH 222315Z AUTO 18005KT 7SM -RA SCT012 SCT019 OVC040 17/16 A3001 RMK AO2 LTG DSNT SW P0014 T01660158
Loading
Personal Weather Stations






























Interactive Weather Map
Tropical Storm Tracking
New forecast layout! Learn more

10-Day Weather Forecast

Advertisements
Track Severe Weather on mobile